createdAt,value
2023-03-28T00:01:00.208Z,99.90
2023-03-28T00:03:29.005Z,99.90
2023-03-28T00:06:02.659Z,99.90
2023-03-28T00:08:29.904Z,99.90
2023-03-28T00:11:08.238Z,99.90
2023-03-28T00:13:35.752Z,99.90
2023-03-28T00:16:08.812Z,99.90
2023-03-28T00:18:39.009Z,99.90
2023-03-28T00:21:23.271Z,99.90
2023-03-28T00:23:54.386Z,99.90
2023-03-28T00:26:24.516Z,99.90
2023-03-28T00:28:51.925Z,99.90
2023-03-28T00:31:18.922Z,99.90
2023-03-28T00:33:47.437Z,99.90
2023-03-28T00:36:26.458Z,99.90
2023-03-28T00:38:53.820Z,99.90
2023-03-28T00:41:22.701Z,99.90
2023-03-28T00:43:52.809Z,99.90
2023-03-28T00:46:26.381Z,99.90
2023-03-28T00:49:21.243Z,99.90
2023-03-28T00:51:52.215Z,99.90
2023-03-28T00:54:19.939Z,99.90
2023-03-28T00:56:52.208Z,99.90
2023-03-28T00:59:23.403Z,99.90
2023-03-28T01:01:50.751Z,99.90
2023-03-28T01:04:20.565Z,99.90
2023-03-28T01:06:51.743Z,99.90
2023-03-28T01:09:19.780Z,99.90
2023-03-28T01:11:47.058Z,99.90
2023-03-28T01:14:17.161Z,99.90
2023-03-28T01:16:47.622Z,99.90
2023-03-28T01:19:42.621Z,99.90
2023-03-28T01:22:30.221Z,99.90
2023-03-28T01:25:42.354Z,99.90
2023-03-28T01:28:41.454Z,99.90
2023-03-28T01:31:35.740Z,99.90
2023-03-28T01:34:24.754Z,99.90
2023-03-28T01:37:05.648Z,99.90
2023-03-28T01:40:01.248Z,99.90
2023-03-28T01:42:54.362Z,99.90
2023-03-28T01:45:42.301Z,99.90
2023-03-28T01:48:36.703Z,99.90
2023-03-28T01:51:10.450Z,99.90
2023-03-28T01:53:59.791Z,99.90
2023-03-28T01:56:37.851Z,99.90
2023-03-28T01:59:29.840Z,99.90
2023-03-28T02:02:10.002Z,99.90
2023-03-28T02:04:39.644Z,99.90
2023-03-28T02:07:08.941Z,99.90
2023-03-28T02:09:37.829Z,99.90
2023-03-28T02:12:16.208Z,99.90
2023-03-28T02:14:44.454Z,99.90
2023-03-28T02:17:15.538Z,99.90
2023-03-28T02:19:50.456Z,99.90
2023-03-28T02:22:34.997Z,99.90
2023-03-28T02:25:02.337Z,99.90
2023-03-28T02:27:28.915Z,99.90
2023-03-28T02:29:55.729Z,99.90
2023-03-28T02:32:23.671Z,99.90
2023-03-28T02:34:53.421Z,99.90
2023-03-28T02:37:47.034Z,99.90
2023-03-28T02:40:27.212Z,99.90
2023-03-28T02:43:18.044Z,99.90
2023-03-28T02:46:09.418Z,99.90
2023-03-28T02:49:01.931Z,99.90
2023-03-28T02:51:34.729Z,99.90
2023-03-28T02:54:25.741Z,99.90
2023-03-28T02:57:11.804Z,99.90
2023-03-28T02:59:48.337Z,99.90
2023-03-28T03:02:20.485Z,99.90
2023-03-28T03:04:50.351Z,99.90
2023-03-28T03:07:20.162Z,99.90
2023-03-28T03:09:47.147Z,99.90
2023-03-28T03:12:14.112Z,99.90
2023-03-28T03:14:40.695Z,99.90
2023-03-28T03:17:07.245Z,99.90
2023-03-28T03:19:33.819Z,99.90
2023-03-28T03:22:01.718Z,99.90
2023-03-28T03:24:28.513Z,99.90
2023-03-28T03:26:55.160Z,99.90
2023-03-28T03:29:21.965Z,99.90
2023-03-28T03:31:48.645Z,99.90
2023-03-28T03:34:15.333Z,99.90
2023-03-28T03:36:42.688Z,99.90
2023-03-28T03:39:09.292Z,99.90
2023-03-28T03:41:36.244Z,99.90
2023-03-28T03:44:02.848Z,99.90
2023-03-28T03:46:29.474Z,99.90
2023-03-28T03:48:56.152Z,99.90
2023-03-28T03:51:22.707Z,99.90
2023-03-28T03:53:50.964Z,99.90
2023-03-28T03:56:17.592Z,99.90
2023-03-28T03:58:44.156Z,99.90
2023-03-28T04:01:13.879Z,99.90
2023-03-28T04:03:41.846Z,99.90
2023-03-28T04:06:09.400Z,99.90
2023-03-28T04:08:36.353Z,99.90
2023-03-28T04:11:03.334Z,99.90
2023-03-28T04:13:30.130Z,99.90
2023-03-28T04:15:56.808Z,99.90
2023-03-28T04:18:23.484Z,99.90
2023-03-28T04:20:55.062Z,99.90
2023-03-28T04:23:25.841Z,99.90
2023-03-28T04:25:57.208Z,99.90
2023-03-28T04:28:25.516Z,99.90
2023-03-28T04:30:58.121Z,99.90
2023-03-28T04:33:25.914Z,99.90
2023-03-28T04:35:57.543Z,99.90
2023-03-28T04:38:26.168Z,99.90
2023-03-28T04:40:57.654Z,99.90
2023-03-28T04:43:25.709Z,99.90
2023-03-28T04:45:53.374Z,99.90
2023-03-28T04:48:20.305Z,99.90
2023-03-28T04:50:47.383Z,99.90
2023-03-28T04:53:14.583Z,99.90
2023-03-28T04:55:41.364Z,99.90
2023-03-28T04:58:08.087Z,99.90
2023-03-28T05:00:36.733Z,99.90
2023-03-28T05:03:06.709Z,99.90
2023-03-28T05:05:33.429Z,99.90
2023-03-28T05:08:00.686Z,99.90
2023-03-28T05:10:27.292Z,99.90
2023-03-28T05:12:53.839Z,99.90
2023-03-28T05:15:22.190Z,99.90
2023-03-28T05:17:50.146Z,99.90
2023-03-28T05:20:18.709Z,99.90
2023-03-28T05:22:45.346Z,99.90
2023-03-28T05:25:12.008Z,99.90
2023-03-28T05:27:38.838Z,99.90
2023-03-28T05:30:07.173Z,99.90
2023-03-28T05:32:34.048Z,99.90
2023-03-28T05:35:00.916Z,99.90
2023-03-28T05:37:28.412Z,99.90
2023-03-28T05:39:55.244Z,99.90
2023-03-28T05:42:21.854Z,99.90
2023-03-28T05:44:48.857Z,99.90
2023-03-28T05:47:15.445Z,99.90
2023-03-28T05:49:42.160Z,99.90
2023-03-28T05:52:08.833Z,99.90
2023-03-28T05:54:35.490Z,99.90
2023-03-28T05:57:02.221Z,99.90
2023-03-28T05:59:28.912Z,99.90
2023-03-28T06:01:55.623Z,99.90
2023-03-28T06:04:22.806Z,99.90
2023-03-28T06:06:49.832Z,99.90
2023-03-28T06:09:16.588Z,99.90
2023-03-28T06:11:43.250Z,99.90
2023-03-28T06:14:10.342Z,99.90
2023-03-28T06:16:37.576Z,99.90
2023-03-28T06:19:17.135Z,99.90
2023-03-28T06:21:44.152Z,99.90
2023-03-28T06:24:11.212Z,99.90
2023-03-28T06:26:38.092Z,99.90
2023-03-28T06:29:06.004Z,99.90
2023-03-28T06:31:36.219Z,99.90
2023-03-28T06:34:02.887Z,99.90
2023-03-28T06:36:29.448Z,99.90
2023-03-28T06:38:58.245Z,99.90
2023-03-28T06:41:24.998Z,99.90
2023-03-28T06:43:51.634Z,99.90
2023-03-28T06:46:18.332Z,99.90
2023-03-28T06:48:44.970Z,99.90
2023-03-28T06:51:12.871Z,99.90
2023-03-28T06:53:39.633Z,99.90
2023-03-28T06:56:06.875Z,99.90
2023-03-28T06:58:33.459Z,99.90
2023-03-28T07:01:00.488Z,99.90
2023-03-28T07:03:27.433Z,99.90
2023-03-28T07:05:54.116Z,99.90
2023-03-28T07:08:21.363Z,99.90
2023-03-28T07:10:48.048Z,99.90
2023-03-28T07:13:15.420Z,99.90
2023-03-28T07:15:42.135Z,99.90
2023-03-28T07:18:11.791Z,99.90
2023-03-28T07:20:40.042Z,99.90
2023-03-28T07:23:07.279Z,99.90
2023-03-28T07:25:34.245Z,99.90
2023-03-28T07:28:00.931Z,99.90
2023-03-28T07:30:27.504Z,99.90
2023-03-28T07:33:01.670Z,99.90
2023-03-28T07:35:34.517Z,99.90
2023-03-28T07:38:01.134Z,99.90
2023-03-28T07:40:27.718Z,99.90
2023-03-28T07:42:54.280Z,99.90
2023-03-28T07:45:20.861Z,99.90
2023-03-28T07:47:47.481Z,99.90
2023-03-28T07:50:14.454Z,99.90
2023-03-28T07:52:45.383Z,99.90
2023-03-28T07:55:13.782Z,99.90
2023-03-28T07:57:40.920Z,99.90
2023-03-28T08:00:12.909Z,99.90
2023-03-28T08:02:43.399Z,99.90
2023-03-28T08:05:11.618Z,99.90
2023-03-28T08:07:38.221Z,99.90
2023-03-28T08:10:05.250Z,99.90
2023-03-28T08:12:31.882Z,99.90
2023-03-28T08:14:58.478Z,99.90
2023-03-28T08:17:26.461Z,99.90
2023-03-28T08:19:53.437Z,99.90
2023-03-28T08:22:20.676Z,99.90
2023-03-28T08:24:47.547Z,99.90
2023-03-28T08:27:14.430Z,99.90
2023-03-28T08:29:41.028Z,99.90
2023-03-28T08:32:07.617Z,99.20
2023-03-28T08:34:34.308Z,98.40
2023-03-28T08:37:01.092Z,97.40
2023-03-28T08:39:27.821Z,95.60
2023-03-28T08:42:26.032Z,95.30
2023-03-28T08:45:27.009Z,95.30
2023-03-28T08:48:04.889Z,95.20
2023-03-28T08:50:34.992Z,94.90
2023-03-28T08:53:03.698Z,95.00
2023-03-28T08:55:39.545Z,94.60
2023-03-28T08:58:11.002Z,94.60
2023-03-28T09:00:38.516Z,94.50
2023-03-28T09:03:22.083Z,94.30
2023-03-28T09:06:33.237Z,93.20
2023-03-28T09:09:34.837Z,92.00
2023-03-28T09:12:50.972Z,90.50
2023-03-28T09:15:49.622Z,90.10
2023-03-28T09:18:26.764Z,90.00
2023-03-28T09:21:08.038Z,88.40
2023-03-28T09:23:54.169Z,88.90
2023-03-28T09:26:27.444Z,89.40
2023-03-28T09:29:05.902Z,90.20
2023-03-28T09:31:45.824Z,89.80
2023-03-28T09:34:30.316Z,90.00
2023-03-28T09:37:02.767Z,90.40
2023-03-28T09:39:37.276Z,90.60
2023-03-28T09:42:19.384Z,91.40
2023-03-28T09:45:13.644Z,91.10
2023-03-28T09:47:44.410Z,90.20
2023-03-28T09:50:15.813Z,90.00
2023-03-28T09:52:42.983Z,90.00
2023-03-28T09:55:24.517Z,89.70
2023-03-28T09:58:09.103Z,89.50
2023-03-28T10:00:41.691Z,90.20
2023-03-28T10:03:29.478Z,89.50
2023-03-28T10:05:57.697Z,87.20
2023-03-28T10:08:35.452Z,87.30
2023-03-28T10:11:12.208Z,87.40
2023-03-28T10:13:47.339Z,86.40
2023-03-28T10:16:19.900Z,86.00
2023-03-28T10:18:46.522Z,85.80
2023-03-28T10:21:21.087Z,86.40
2023-03-28T10:24:06.523Z,87.30
2023-03-28T10:26:33.720Z,86.60
2023-03-28T10:29:04.587Z,86.00
2023-03-28T10:31:32.879Z,86.80
2023-03-28T10:34:00.884Z,85.30
2023-03-28T10:36:33.734Z,83.80
2023-03-28T10:39:19.653Z,83.90
2023-03-28T10:41:57.548Z,82.60
2023-03-28T10:44:32.833Z,82.30
2023-03-28T10:47:03.390Z,80.80
2023-03-28T10:49:47.638Z,80.80
2023-03-28T10:52:35.836Z,80.00
2023-03-28T10:55:19.831Z,80.00
2023-03-28T10:58:02.741Z,77.30
2023-03-28T11:00:38.496Z,76.40
2023-03-28T11:03:39.002Z,76.60
2023-03-28T11:06:41.287Z,76.00
2023-03-28T11:09:30.382Z,76.60
2023-03-28T11:12:28.675Z,75.30
2023-03-28T11:15:12.107Z,74.90
2023-03-28T11:18:10.841Z,75.90
2023-03-28T11:21:16.666Z,75.80
2023-03-28T11:23:46.127Z,75.30
2023-03-28T11:26:29.889Z,74.40
2023-03-28T11:29:08.379Z,74.50
2023-03-28T11:32:26.462Z,72.30
2023-03-28T11:35:26.419Z,71.90
2023-03-28T11:38:12.502Z,72.20
2023-03-28T11:40:54.678Z,70.10
2023-03-28T11:43:49.700Z,69.70
2023-03-28T11:46:33.291Z,70.50
2023-03-28T11:49:06.267Z,70.80
2023-03-28T11:51:38.392Z,69.70
2023-03-28T11:54:36.503Z,69.50
2023-03-28T11:57:28.840Z,69.30
2023-03-28T12:00:00.609Z,68.80
2023-03-28T12:02:41.132Z,68.30
2023-03-28T12:05:19.901Z,67.20
2023-03-28T12:08:11.102Z,67.00
2023-03-28T12:10:38.118Z,66.80
2023-03-28T12:13:21.856Z,66.20
2023-03-28T12:15:53.151Z,65.80
2023-03-28T12:18:35.536Z,66.20
2023-03-28T12:21:30.017Z,66.60
2023-03-28T12:24:24.838Z,65.20
2023-03-28T12:27:01.901Z,65.10
2023-03-28T12:29:42.190Z,63.90
2023-03-28T12:32:46.539Z,63.90
2023-03-28T12:35:39.580Z,63.90
2023-03-28T12:38:32.341Z,63.20
2023-03-28T12:41:05.617Z,64.10
2023-03-28T12:43:51.975Z,65.00
2023-03-28T12:46:24.084Z,64.20
2023-03-28T12:48:57.919Z,63.80
2023-03-28T12:52:00.805Z,64.90
2023-03-28T12:54:29.829Z,65.20
2023-03-28T12:57:10.954Z,65.80
2023-03-28T12:59:40.605Z,66.00
2023-03-28T13:02:18.244Z,65.90
2023-03-28T13:05:22.723Z,65.60
2023-03-28T13:08:00.779Z,65.80
2023-03-28T13:10:38.481Z,64.80
2023-03-28T13:13:33.663Z,65.20
2023-03-28T13:16:06.010Z,64.80
2023-03-28T13:18:44.951Z,64.40
2023-03-28T13:21:11.581Z,64.40
2023-03-28T13:23:47.131Z,63.80
2023-03-28T13:26:14.312Z,63.00
2023-03-28T13:28:43.429Z,62.20
2023-03-28T13:33:52.414Z,59.70
2023-03-28T13:36:24.562Z,59.80
2023-03-28T13:39:20.479Z,58.90
2023-03-28T13:41:47.105Z,59.80
2023-03-28T13:44:20.102Z,59.20
2023-03-28T13:46:51.985Z,59.00
2023-03-28T13:49:30.571Z,59.20
2023-03-28T13:52:14.801Z,59.40
2023-03-28T13:54:41.541Z,59.50
2023-03-28T13:57:16.403Z,58.30
2023-03-28T14:00:08.309Z,57.60
2023-03-28T14:02:36.824Z,57.00
2023-03-28T14:05:25.769Z,57.20
2023-03-28T14:07:54.299Z,57.90
2023-03-28T14:10:39.827Z,57.70
2023-03-28T14:13:11.658Z,58.20
2023-03-28T14:15:40.087Z,57.80
2023-03-28T14:18:15.185Z,58.60
2023-03-28T14:20:43.648Z,58.70
2023-03-28T14:23:29.906Z,59.10
2023-03-28T14:26:02.557Z,58.10
2023-03-28T14:28:30.216Z,58.00
2023-03-28T14:30:57.654Z,57.20
2023-03-28T14:33:24.688Z,56.50
2023-03-28T14:36:03.695Z,56.80
2023-03-28T14:38:34.561Z,58.10
2023-03-28T14:41:21.637Z,57.30
2023-03-28T14:43:54.075Z,56.80
2023-03-28T14:46:29.946Z,56.90
2023-03-28T14:48:59.911Z,56.30
2023-03-28T14:51:28.062Z,56.40
2023-03-28T14:53:57.086Z,56.70
2023-03-28T14:56:26.476Z,57.20
2023-03-28T14:58:58.905Z,57.80
2023-03-28T15:01:26.953Z,56.40
2023-03-28T15:04:00.046Z,56.70
2023-03-28T15:06:29.261Z,56.10
2023-03-28T15:08:59.648Z,56.00
2023-03-28T15:11:35.306Z,56.90
2023-03-28T15:14:16.642Z,56.90
2023-03-28T15:16:46.565Z,57.20
2023-03-28T15:19:23.103Z,56.30
2023-03-28T15:22:12.577Z,56.30
2023-03-28T15:24:39.747Z,55.40
2023-03-28T15:27:08.097Z,55.20
2023-03-28T15:29:37.429Z,55.00
2023-03-28T15:32:07.290Z,55.40
2023-03-28T15:34:45.109Z,56.40
2023-03-28T15:37:15.735Z,56.60
2023-03-28T15:39:42.728Z,56.20
2023-03-28T15:42:29.505Z,55.50
2023-03-28T15:44:59.108Z,55.60
2023-03-28T15:47:29.420Z,56.00
2023-03-28T15:50:03.435Z,56.30
2023-03-28T15:52:31.044Z,56.30
2023-03-28T15:54:59.709Z,57.30
2023-03-28T15:57:29.375Z,57.00
2023-03-28T15:59:58.031Z,57.50
2023-03-28T16:02:24.622Z,58.00
2023-03-28T16:05:07.539Z,58.00
2023-03-28T16:07:36.854Z,58.10
2023-03-28T16:10:04.190Z,58.70
2023-03-28T16:12:30.812Z,59.40
2023-03-28T16:14:57.519Z,59.70
2023-03-28T16:17:29.977Z,60.40
2023-03-28T16:19:57.538Z,60.90
2023-03-28T16:22:25.050Z,60.60
2023-03-28T16:24:53.415Z,61.20
2023-03-28T16:27:21.849Z,60.90
2023-03-28T16:29:48.751Z,61.20
2023-03-28T16:32:16.329Z,61.60
2023-03-28T16:34:43.638Z,61.80
2023-03-28T16:37:11.405Z,62.00
2023-03-28T16:39:38.706Z,62.10
2023-03-28T16:42:06.155Z,61.80
2023-03-28T16:44:33.058Z,61.70
2023-03-28T16:47:00.779Z,61.70
2023-03-28T16:49:27.370Z,62.40
2023-03-28T16:51:54.872Z,63.30
2023-03-28T16:54:22.778Z,63.80
2023-03-28T16:56:49.711Z,64.30
2023-03-28T16:59:16.625Z,64.50
2023-03-28T17:01:46.150Z,64.60
2023-03-28T17:04:15.794Z,64.90
2023-03-28T17:06:42.345Z,65.30
2023-03-28T17:09:09.210Z,65.90
2023-03-28T17:11:36.035Z,65.90
2023-03-28T17:14:02.756Z,66.20
2023-03-28T17:16:29.377Z,66.40
2023-03-28T17:18:56.087Z,66.80
2023-03-28T17:21:22.709Z,67.50
2023-03-28T17:23:50.846Z,67.90
2023-03-28T17:26:18.330Z,68.00
2023-03-28T17:28:45.836Z,68.30
2023-03-28T17:31:15.728Z,68.70
2023-03-28T17:33:43.703Z,69.00
2023-03-28T17:36:22.895Z,69.40
2023-03-28T17:38:55.608Z,69.30
2023-03-28T17:41:23.448Z,69.40
2023-03-28T17:43:52.341Z,69.70
2023-03-28T17:46:19.282Z,70.00
2023-03-28T17:48:46.546Z,70.20
2023-03-28T17:51:13.850Z,70.70
2023-03-28T17:53:41.657Z,71.10
2023-03-28T17:56:09.906Z,71.50
2023-03-28T17:58:37.587Z,72.10
2023-03-28T18:01:09.440Z,72.30
2023-03-28T18:03:36.980Z,72.60
2023-03-28T18:06:04.011Z,73.20
2023-03-28T18:08:31.401Z,73.20
2023-03-28T18:11:03.248Z,73.40
2023-03-28T18:13:29.877Z,73.60
2023-03-28T18:15:57.640Z,74.20
2023-03-28T18:18:24.279Z,74.40
2023-03-28T18:20:51.052Z,74.60
2023-03-28T18:23:17.955Z,74.90
2023-03-28T18:25:44.548Z,74.80
2023-03-28T18:28:11.280Z,75.30
2023-03-28T18:30:39.174Z,75.50
2023-03-28T18:33:06.090Z,75.70
2023-03-28T18:35:32.770Z,75.90
2023-03-28T18:37:59.416Z,76.00
2023-03-28T18:40:26.388Z,76.40
2023-03-28T18:42:52.941Z,76.90
2023-03-28T18:45:19.605Z,77.50
2023-03-28T18:47:46.584Z,78.30
2023-03-28T18:50:15.107Z,78.60
2023-03-28T18:52:42.749Z,78.90
2023-03-28T18:55:10.315Z,79.10
2023-03-28T18:57:37.465Z,79.50
2023-03-28T19:00:17.549Z,79.80
2023-03-28T19:02:48.820Z,80.20
2023-03-28T19:05:16.651Z,80.60
2023-03-28T19:07:44.392Z,80.90
2023-03-28T19:10:13.342Z,80.70
2023-03-28T19:12:40.533Z,80.80
2023-03-28T19:15:08.439Z,80.80
2023-03-28T19:17:39.837Z,81.00
2023-03-28T19:20:11.022Z,81.60
2023-03-28T19:22:37.618Z,81.90
2023-03-28T19:25:04.954Z,82.40
2023-03-28T19:27:31.756Z,82.90
2023-03-28T19:29:58.503Z,83.30
2023-03-28T19:32:25.174Z,83.50
2023-03-28T19:34:52.720Z,85.00
2023-03-28T19:37:19.309Z,86.30
2023-03-28T19:39:45.943Z,86.30
2023-03-28T19:42:12.504Z,87.40
2023-03-28T19:44:39.351Z,88.60
2023-03-28T19:47:06.862Z,89.20
2023-03-28T19:49:33.591Z,90.00
2023-03-28T19:52:00.220Z,90.30
2023-03-28T19:54:27.060Z,90.60
2023-03-28T19:56:53.673Z,91.30
2023-03-28T19:59:20.280Z,91.50
2023-03-28T20:01:46.877Z,91.60
2023-03-28T20:04:14.388Z,92.30
2023-03-28T20:06:41.200Z,92.80
2023-03-28T20:09:08.119Z,92.60
2023-03-28T20:11:35.556Z,92.90
2023-03-28T20:14:02.100Z,93.30
2023-03-28T20:16:28.785Z,94.00
2023-03-28T20:18:56.283Z,94.80
2023-03-28T20:21:22.918Z,94.80
2023-03-28T20:23:50.526Z,95.00
2023-03-28T20:26:19.978Z,96.10
2023-03-28T20:28:49.685Z,96.60
2023-03-28T20:31:18.085Z,97.10
2023-03-28T20:33:45.363Z,97.50
2023-03-28T20:36:12.156Z,98.20
2023-03-28T20:38:38.834Z,98.60
2023-03-28T20:41:11.101Z,99.00
2023-03-28T20:43:40.604Z,99.20
2023-03-28T20:46:09.590Z,99.50
2023-03-28T20:48:36.730Z,99.90
2023-03-28T20:51:15.777Z,99.90
2023-03-28T20:53:44.973Z,99.90
2023-03-28T20:56:13.225Z,99.90
2023-03-28T20:58:40.408Z,99.90
2023-03-28T21:01:09.700Z,99.90
2023-03-28T21:03:48.933Z,99.90
2023-03-28T21:06:33.193Z,99.90
2023-03-28T21:09:02.509Z,99.90
2023-03-28T21:11:31.668Z,99.90
2023-03-28T21:14:00.005Z,99.90
2023-03-28T21:16:28.031Z,99.90
2023-03-28T21:18:54.941Z,99.90
2023-03-28T21:21:21.655Z,99.90
2023-03-28T21:23:49.144Z,99.90
2023-03-28T21:26:18.620Z,99.90
2023-03-28T21:28:46.396Z,99.90
2023-03-28T21:31:19.753Z,99.90
2023-03-28T21:33:47.328Z,99.90
2023-03-28T21:36:16.384Z,99.90
2023-03-28T21:38:44.594Z,99.90
2023-03-28T21:41:12.712Z,99.90
2023-03-28T21:43:39.717Z,99.90
2023-03-28T21:46:08.677Z,99.90
2023-03-28T21:48:36.580Z,99.90
2023-03-28T21:51:04.654Z,99.90
2023-03-28T21:53:34.340Z,99.90
2023-03-28T21:56:01.166Z,99.90
2023-03-28T21:58:30.778Z,99.90
2023-03-28T22:00:57.493Z,99.90
2023-03-28T22:03:31.339Z,99.90
2023-03-28T22:06:01.079Z,99.90
2023-03-28T22:08:27.717Z,99.90
2023-03-28T22:10:58.306Z,99.90
2023-03-28T22:13:25.101Z,99.90
2023-03-28T22:15:58.445Z,99.90
2023-03-28T22:18:26.289Z,99.90
2023-03-28T22:20:53.583Z,99.90
2023-03-28T22:23:24.546Z,99.90
2023-03-28T22:25:52.797Z,99.90
2023-03-28T22:28:23.962Z,99.90
2023-03-28T22:30:53.498Z,99.90
2023-03-28T22:33:20.141Z,99.90
2023-03-28T22:35:48.076Z,99.90
2023-03-28T22:38:14.732Z,99.90
2023-03-28T22:40:41.273Z,99.90
2023-03-28T22:43:08.087Z,99.90
2023-03-28T22:45:34.848Z,99.90
2023-03-28T22:48:04.602Z,99.90
2023-03-28T22:50:33.526Z,99.90
2023-03-28T22:53:02.153Z,99.90
2023-03-28T22:55:28.764Z,99.90
2023-03-28T22:57:55.660Z,99.90
2023-03-28T23:00:23.149Z,99.90
2023-03-28T23:02:51.728Z,99.90
2023-03-28T23:05:19.310Z,99.90
2023-03-28T23:07:46.083Z,99.90
2023-03-28T23:10:15.088Z,99.90
2023-03-28T23:12:43.173Z,99.90
2023-03-28T23:15:10.897Z,99.90
2023-03-28T23:17:38.126Z,99.90
2023-03-28T23:20:19.026Z,99.90
2023-03-28T23:22:47.955Z,99.90
2023-03-28T23:25:16.927Z,99.90
2023-03-28T23:27:44.122Z,99.90
2023-03-28T23:30:12.883Z,99.90
2023-03-28T23:32:39.793Z,99.90
2023-03-28T23:35:09.736Z,99.90
2023-03-28T23:37:38.317Z,99.90
2023-03-28T23:40:10.403Z,99.90
2023-03-28T23:42:36.981Z,99.90
2023-03-28T23:45:04.196Z,99.90
2023-03-28T23:47:30.864Z,99.90
2023-03-28T23:49:57.505Z,99.90
2023-03-28T23:52:24.051Z,99.90
2023-03-28T23:54:50.628Z,99.90
2023-03-28T23:57:17.364Z,99.90
2023-03-28T23:59:43.977Z,99.90
